Accueil
METAR-TAF:

METAR-TAF

Aéroports :

Aéroport de Béchar - Boudghene Ben Ali Lotfi

Béchar, Algérie

latitude: 31-37N, longitude: 002-14W, altitude: 773 m

Observation

Le bulletin a été fait il y a 1 heure et 9 minutes, à 16:00 UTC
Vent 8 kt de sud-ouest
Température 45°C
Pression 1011 hPa
Visibilité: 8000 m
Quelques nuages à une hauteur de 3300 ft

METAR: DAOR 131600Z 23008KT 8000 FEW033 45/// Q1011

Heure: 18:09 (17:09 UTC)

Prévision

Le bulletin a été fait il y a 3 heures et 9 minutes, à 14:00 UTC
Prévision valable du 13 à 15 UTC au 13 à 24 UTC
Vent 6 kt de sud
Visibilité: 6000 m

TAF: DAOR 131400Z 1315/1324 18006KT 6000 NSC

Observations et prévisions météorologiques de plus de 4000 aéroports (messages METAR et TAF).

Les stations disponibles sont représentées par des disques jaunes et rouges sur la carte.

Passer la souris dessus pour voir le nom de la station.

Cliquer dessus pour voir les observations et prévisions météorologiques.

Pour changer de carte: cliquez sur les boutons verts avec une croix noire pour zoomer, sur le bouton vert avec un tiret pour effectuer un zoom arrière, ou sur les flèches vertes pour les cartes adjacentes.


METAR-TAF: